Time,TemperatureF,DewpointF,PressureIn,WindDirection,WindDirectionDegrees,WindSpeedMPH,WindSpeedGustMPH,Humidity,HourlyPrecipIn,Conditions,Clouds,dailyrainin,SolarRadiationWatts/m^2,SoftwareType,DateUTC
2014-02-26 00:01:00,39.0,9.0,-100.00,West,281,3.0,8.0,29,0.00,,,0.00,0.000000,,2014-02-26 07:01:00,
2014-02-26 00:42:00,36.0,9.0,-100.00,West,277,2.0,6.0,32,0.00,,,0.00,0.000000,,2014-02-26 07:42:00,
2014-02-26 00:52:00,36.0,9.0,-100.00,West,277,2.0,6.0,32,0.00,,,0.00,0.000000,,2014-02-26 07:52:00,
2014-02-26 01:02:00,36.0,9.0,-100.00,West,277,2.0,6.0,32,0.00,,,0.00,0.000000,,2014-02-26 08:02:00,
2014-02-26 01:42:00,36.0,12.0,-100.00,NNW,343,1.0,5.0,36,0.00,,,0.00,0.000000,,2014-02-26 08:42:00,
2014-02-26 01:52:00,36.0,12.0,-100.00,NNW,343,1.0,5.0,36,0.00,,,0.00,0.000000,,2014-02-26 08:52:00,
2014-02-26 02:02:00,36.0,12.0,-100.00,NNW,343,1.0,5.0,36,0.00,,,0.00,0.000000,,2014-02-26 09:02:00,
2014-02-26 02:43:00,35.0,15.0,-100.00,NNW,345,4.0,8.0,43,0.00,,,0.00,0.000000,,2014-02-26 09:43:00,
2014-02-26 02:53:00,35.0,15.0,-100.00,NNW,345,4.0,8.0,43,0.00,,,0.00,0.000000,,2014-02-26 09:53:00,
2014-02-26 03:03:00,35.0,15.0,-100.00,NNW,345,4.0,8.0,43,0.00,,,0.00,0.000000,,2014-02-26 10:03:00,
2014-02-26 03:43:00,34.0,16.0,-100.00,North,358,4.0,10.0,48,0.00,,,0.00,0.000000,,2014-02-26 10:43:00,
2014-02-26 03:53:00,34.0,16.0,-100.00,North,358,4.0,10.0,48,0.00,,,0.00,0.000000,,2014-02-26 10:53:00,
2014-02-26 04:02:00,34.0,16.0,-100.00,North,358,4.0,10.0,48,0.00,,,0.00,0.000000,,2014-02-26 11:02:00,
2014-02-26 04:42:00,33.0,18.0,-100.00,NNE,12,2.0,7.0,53,0.00,,,0.00,0.000000,,2014-02-26 11:42:00,
2014-02-26 04:52:00,33.0,18.0,-100.00,NNE,12,2.0,7.0,53,0.00,,,0.00,0.000000,,2014-02-26 11:52:00,
2014-02-26 05:02:00,33.0,18.0,-100.00,NNE,12,2.0,7.0,53,0.00,,,0.00,0.000000,,2014-02-26 12:02:00,
2014-02-26 05:42:00,32.0,19.0,-100.00,North,355,3.0,7.0,58,0.00,,,0.00,0.000000,,2014-02-26 12:42:00,
2014-02-26 05:52:00,32.0,19.0,-100.00,North,355,3.0,7.0,58,0.00,,,0.00,0.000000,,2014-02-26 12:52:00,
2014-02-26 06:02:00,32.0,19.0,-100.00,North,355,3.0,7.0,58,0.00,,,0.00,0.000000,,2014-02-26 13:02:00,
2014-02-26 06:42:00,32.0,20.0,-100.00,NNW,344,2.0,7.0,60,0.00,,,0.00,0.000000,,2014-02-26 13:42:00,
2014-02-26 06:52:00,32.0,20.0,-100.00,NNW,344,2.0,7.0,60,0.00,,,0.00,0.000000,,2014-02-26 13:52:00,
2014-02-26 07:02:00,32.0,20.0,-100.00,NNW,344,2.0,7.0,60,0.00,,,0.00,0.000000,,2014-02-26 14:02:00,
2014-02-26 07:42:00,33.0,20.0,-100.00,North,7,1.0,5.0,59,0.00,,,0.00,2.000000,,2014-02-26 14:42:00,
2014-02-26 07:52:00,33.0,20.0,-100.00,North,7,1.0,5.0,59,0.00,,,0.00,2.000000,,2014-02-26 14:52:00,
2014-02-26 08:01:00,33.0,20.0,-100.00,North,7,1.0,5.0,59,0.00,,,0.00,2.000000,,2014-02-26 15:01:00,
2014-02-26 08:43:00,37.0,21.0,-100.00,NE,55,2.0,4.0,52,0.00,,,0.00,38.000000,,2014-02-26 15:43:00,
2014-02-26 08:53:00,37.0,21.0,-100.00,NE,55,2.0,4.0,52,0.00,,,0.00,38.000000,,2014-02-26 15:53:00,
2014-02-26 09:03:00,37.0,21.0,-100.00,NE,55,2.0,4.0,52,0.00,,,0.00,38.000000,,2014-02-26 16:03:00,
2014-02-26 09:42:00,48.0,21.0,-100.00,WSW,256,2.0,4.0,34,0.00,,,0.00,250.000000,,2014-02-26 16:42:00,
2014-02-26 10:52:00,51.0,22.0,-100.00,SSW,192,2.0,6.0,32,-99.99,,,0.00,513.000000,,2014-02-26 17:52:00,
2014-02-26 11:02:00,51.0,22.0,-100.00,SSW,192,2.0,6.0,32,-99.99,,,0.00,513.000000,,2014-02-26 18:02:00,
2014-02-26 11:42:00,49.0,21.0,-100.00,ENE,70,5.0,10.0,33,-99.99,,,0.00,657.000000,,2014-02-26 18:42:00,
2014-02-26 11:53:00,49.0,21.0,-100.00,ENE,70,5.0,10.0,33,-99.99,,,0.00,657.000000,,2014-02-26 18:53:00,
2014-02-26 12:01:00,49.0,21.0,-100.00,ENE,70,5.0,10.0,33,-99.99,,,0.00,657.000000,,2014-02-26 19:01:00,
2014-02-26 12:42:00,50.0,22.0,-100.00,ENE,71,4.0,10.0,33,0.00,,,0.00,757.000000,,2014-02-26 19:42:00,
2014-02-26 12:52:00,50.0,22.0,-100.00,ENE,71,4.0,10.0,33,0.00,,,0.00,757.000000,,2014-02-26 19:52:00,
2014-02-26 13:02:00,50.0,22.0,-100.00,ENE,71,4.0,10.0,33,0.00,,,0.00,757.000000,,2014-02-26 20:02:00,
2014-02-26 13:42:00,47.0,19.0,-100.00,NNE,17,4.0,13.0,33,0.00,,,0.00,489.000000,,2014-02-26 20:42:00,
2014-02-26 13:52:00,47.0,19.0,-100.00,NNE,17,4.0,13.0,33,0.00,,,0.00,489.000000,,2014-02-26 20:52:00,
2014-02-26 14:02:00,47.0,19.0,-100.00,NNE,17,4.0,13.0,33,0.00,,,0.00,489.000000,,2014-02-26 21:02:00,
2014-02-26 14:43:00,46.0,16.0,-100.00,NNW,348,4.0,14.0,30,0.00,,,0.00,385.000000,,2014-02-26 21:43:00,
2014-02-26 14:53:00,46.0,16.0,-100.00,NNW,348,4.0,14.0,30,0.00,,,0.00,385.000000,,2014-02-26 21:53:00,
2014-02-26 15:03:00,46.0,16.0,-100.00,NNW,348,4.0,14.0,30,0.00,,,0.00,385.000000,,2014-02-26 22:03:00,
2014-02-26 15:43:00,53.0,18.0,-100.00,NNW,339,4.0,11.0,25,0.00,,,0.00,411.000000,,2014-02-26 22:43:00,
2014-02-26 15:53:00,53.0,18.0,-100.00,NNW,339,4.0,11.0,25,0.00,,,0.00,411.000000,,2014-02-26 22:53:00,
2014-02-26 16:02:00,53.0,18.0,-100.00,NNW,339,4.0,11.0,25,0.00,,,0.00,411.000000,,2014-02-26 23:02:00,
2014-02-26 16:42:00,49.0,17.0,-100.00,NW,326,5.0,13.0,28,0.00,,,-99.99,448.000000,,2014-02-26 23:42:00,
2014-02-26 16:52:00,49.0,17.0,-100.00,NW,326,5.0,13.0,28,0.00,,,-99.99,448.000000,,2014-02-26 23:52:00,
2014-02-26 17:01:00,49.0,17.0,-100.00,NW,326,5.0,13.0,28,0.00,,,-99.99,448.000000,,2014-02-27 00:01:00,
2014-02-26 17:42:00,44.0,15.0,-100.00,NW,318,3.0,13.0,31,0.00,,,0.00,170.000000,,2014-02-27 00:42:00,
2014-02-26 17:52:00,44.0,15.0,-100.00,NW,318,3.0,13.0,31,0.00,,,0.00,170.000000,,2014-02-27 00:52:00,
2014-02-26 18:01:00,44.0,15.0,-100.00,NW,318,3.0,13.0,31,0.00,,,0.00,170.000000,,2014-02-27 01:01:00,
2014-02-26 18:42:00,40.0,16.0,-100.00,WNW,300,2.0,7.0,37,0.00,,,0.00,18.000000,,2014-02-27 01:42:00,
2014-02-26 18:52:00,40.0,16.0,-100.00,WNW,300,2.0,7.0,37,0.00,,,0.00,18.000000,,2014-02-27 01:52:00,
2014-02-26 19:01:00,40.0,16.0,-100.00,WNW,300,2.0,7.0,37,0.00,,,0.00,18.000000,,2014-02-27 02:01:00,
2014-02-26 19:53:00,37.0,15.0,-100.00,North,-999,0.0,5.0,40,0.00,,,0.00,0.000000,,2014-02-27 02:53:00,
2014-02-26 20:02:00,37.0,15.0,-100.00,North,-999,0.0,5.0,40,0.00,,,0.00,0.000000,,2014-02-27 03:02:00,
2014-02-26 20:43:00,35.0,13.0,-100.00,SW,234,1.0,3.0,40,0.00,,,0.00,0.000000,,2014-02-27 03:43:00,
2014-02-26 20:53:00,35.0,13.0,-100.00,SW,234,1.0,3.0,40,0.00,,,0.00,0.000000,,2014-02-27 03:53:00,
2014-02-26 21:03:00,35.0,13.0,-100.00,SW,234,1.0,3.0,40,0.00,,,0.00,0.000000,,2014-02-27 04:03:00,
2014-02-26 21:43:00,35.0,12.0,-100.00,WSW,251,2.0,5.0,38,0.00,,,0.00,0.000000,,2014-02-27 04:43:00,
2014-02-26 21:53:00,35.0,12.0,-100.00,WSW,251,2.0,5.0,38,0.00,,,0.00,0.000000,,2014-02-27 04:53:00,
2014-02-26 22:02:00,35.0,12.0,-100.00,WSW,251,2.0,5.0,38,0.00,,,0.00,0.000000,,2014-02-27 05:02:00,
2014-02-26 22:43:00,34.0,13.0,-100.00,SW,235,3.0,5.0,41,0.00,,,0.00,0.000000,,2014-02-27 05:43:00,
2014-02-26 22:53:00,34.0,13.0,-100.00,SW,235,3.0,5.0,41,0.00,,,0.00,0.000000,,2014-02-27 05:53:00,
2014-02-26 23:02:00,34.0,13.0,-100.00,SW,235,3.0,5.0,41,0.00,,,0.00,0.000000,,2014-02-27 06:02:00,
2014-02-26 23:42:00,35.0,15.0,-100.00,SW,224,5.0,7.0,44,0.00,,,0.00,0.000000,,2014-02-27 06:42:00,
2014-02-26 23:52:00,35.0,15.0,-100.00,SW,224,5.0,7.0,44,0.00,,,0.00,0.000000,,2014-02-27 06:52:00,